Haubstadt, Indiana
Current Conditions -  °F | °C
As of 8:54 AM on Monday 22 Dec 2014 (Local Time) from KEVV Reporting Station
Overcast Overcast  
Wind Chill: 41°   Ceiling: 2200
Heat Index: 46°   Visibility: 10mi
Dew Point: 39°   Wind: 9mph
Humidity: 76%   Direction: 140°SE
Pressure: 29.9"   Gusts: NA
Location:  38.21°N, 87.57°W
Report Text: KEVV 221454Z 14008KT 10SM OVC022 08/04 A2990 RMK AO2 SLP126 T00780039 58007
Loading
Personal Weather Stations






























Interactive Weather Map New forecast layout! Learn more

10-Day Weather Forecast

Advertisements
Track Severe Weather on mobile